Axtell, Nebraska
Current Conditions -  °F | °C
As of 5:35 PM on Saturday 22 Nov 2014 (Local Time) from KHDE Reporting Station
Clear Clear  
Wind Chill: 51°   Ceiling: Unl
Heat Index: 51°   Visibility: 10mi
Dew Point: 33°   Wind: 9mph
Humidity: 50%   Direction: 170°S
Pressure: 29.55"   Gusts: NA
Location:  40.48°N, 99.13°W
Report Text: KHDE 222335Z AUTO 17008KT 10SM CLR 11/01 A2955 RMK AO2 T01070005
Loading
Personal Weather Stations






























Interactive Weather Map New forecast layout! Learn more

10-Day Weather Forecast

Advertisements
Track Severe Weather on mobile